createdAt,value
2023-07-26T00:01:07.957Z,97524.50
2023-07-26T00:03:34.887Z,97524.72
2023-07-26T00:06:02.459Z,97527.78
2023-07-26T00:08:29.408Z,97531.69
2023-07-26T00:10:57.216Z,97516.94
2023-07-26T00:13:24.132Z,97533.16
2023-07-26T00:15:51.189Z,97398.81
2023-07-26T00:18:18.111Z,97393.34
2023-07-26T00:20:45.182Z,97481.34
2023-07-26T00:23:12.045Z,97357.91
2023-07-26T00:25:38.927Z,97516.09
2023-07-26T00:28:05.776Z,97471.63
2023-07-26T00:30:32.759Z,97526.34
2023-07-26T00:32:59.811Z,97517.63
2023-07-26T00:35:29.608Z,97515.97
2023-07-26T00:37:56.671Z,97463.94
2023-07-26T00:40:25.471Z,97484.13
2023-07-26T00:42:52.391Z,97493.44
2023-07-26T00:45:19.405Z,97345.16
2023-07-26T00:47:47.022Z,97428.22
2023-07-26T00:50:14.127Z,97484.28
2023-07-26T00:52:41.423Z,97389.56
2023-07-26T00:55:09.111Z,97469.63
2023-07-26T00:57:36.200Z,97472.31
2023-07-26T01:00:03.978Z,97419.13
2023-07-26T01:02:32.805Z,97402.72
2023-07-26T01:05:00.202Z,97465.47
2023-07-26T01:07:46.523Z,97471.09
2023-07-26T01:10:36.621Z,97475.91
2023-07-26T01:13:16.167Z,97469.22
2023-07-26T01:15:47.585Z,97418.34
2023-07-26T01:18:16.371Z,97456.97
2023-07-26T01:20:44.652Z,97474.56
2023-07-26T01:23:12.115Z,97476.41
2023-07-26T01:25:39.093Z,97476.06
2023-07-26T01:28:06.157Z,97459.84
2023-07-26T01:30:34.295Z,97465.31
2023-07-26T01:33:05.663Z,97457.41
2023-07-26T01:35:33.698Z,97468.97
2023-07-26T01:38:02.342Z,97392.88
2023-07-26T01:40:29.481Z,97479.97
2023-07-26T01:42:57.586Z,97451.88
2023-07-26T01:45:24.515Z,97456.94
2023-07-26T01:47:54.484Z,97407.38
2023-07-26T01:50:21.596Z,97463.25
2023-07-26T01:52:48.675Z,97437.75
2023-07-26T01:55:15.730Z,97453.34
2023-07-26T01:57:42.696Z,97472.59
2023-07-26T02:00:11.369Z,97471.38
2023-07-26T02:02:40.972Z,97489.59
2023-07-26T02:05:08.266Z,97402.53
2023-07-26T02:07:35.338Z,97455.59
2023-07-26T02:10:02.431Z,97489.19
2023-07-26T02:12:29.341Z,97480.09
2023-07-26T02:14:56.377Z,97346.66
2023-07-26T02:17:23.546Z,97475.63
2023-07-26T02:19:50.568Z,97396.25
2023-07-26T02:22:17.512Z,97443.63
2023-07-26T02:24:44.632Z,97479.69
2023-07-26T02:27:11.575Z,97470.16
2023-07-26T02:29:38.973Z,97428.41
2023-07-26T02:32:06.259Z,97473.78
2023-07-26T02:34:33.247Z,97460.81
2023-07-26T02:37:00.341Z,97476.19
2023-07-26T02:39:27.287Z,97464.25
2023-07-26T02:41:54.222Z,97463.66
2023-07-26T02:44:21.110Z,97402.53
2023-07-26T02:46:48.048Z,97431.28
2023-07-26T02:49:15.396Z,97453.59
2023-07-26T02:51:42.421Z,97400.09
2023-07-26T02:54:09.543Z,97448.31
2023-07-26T02:56:36.444Z,97391.38
2023-07-26T02:59:03.396Z,97458.81
2023-07-26T03:01:30.540Z,97466.72
2023-07-26T03:03:58.242Z,97378.44
2023-07-26T03:06:25.161Z,97423.59
2023-07-26T03:08:52.106Z,97449.28
2023-07-26T03:11:19.304Z,97427.22
2023-07-26T03:13:46.177Z,97352.94
2023-07-26T03:16:17.329Z,97496.09
2023-07-26T03:18:44.940Z,97484.53
2023-07-26T03:21:11.881Z,97484.75
2023-07-26T03:23:39.275Z,97487.97
2023-07-26T03:26:06.600Z,97491.63
2023-07-26T03:28:33.773Z,97509.06
2023-07-26T03:31:01.482Z,97469.34
2023-07-26T03:33:28.745Z,97409.00
2023-07-26T03:35:55.717Z,97504.16
2023-07-26T03:38:22.709Z,97535.38
2023-07-26T03:40:49.688Z,97531.31
2023-07-26T03:43:16.717Z,97532.91
2023-07-26T03:45:43.924Z,97544.06
2023-07-26T03:48:10.857Z,97436.03
2023-07-26T03:50:37.878Z,97551.72
2023-07-26T03:53:07.858Z,97514.22
2023-07-26T03:55:37.325Z,97558.44
2023-07-26T03:58:04.226Z,97550.53
2023-07-26T04:00:31.405Z,97560.09
2023-07-26T04:02:58.562Z,97492.97
2023-07-26T04:05:25.600Z,97514.44
2023-07-26T04:07:52.607Z,97514.22
2023-07-26T04:10:19.638Z,97531.63
2023-07-26T04:12:46.479Z,97558.00
2023-07-26T04:15:13.543Z,97504.03
2023-07-26T04:17:40.527Z,97510.56
2023-07-26T04:20:08.001Z,97550.66
2023-07-26T04:22:34.897Z,97559.75
2023-07-26T04:25:01.987Z,97569.16
2023-07-26T04:27:28.958Z,97577.84
2023-07-26T04:29:56.014Z,97542.78
2023-07-26T04:32:23.029Z,97435.59
2023-07-26T04:34:49.964Z,97586.22
2023-07-26T04:37:17.045Z,97579.31
2023-07-26T04:39:47.448Z,97550.72
2023-07-26T04:42:14.389Z,97567.78
2023-07-26T04:44:41.265Z,97567.16
2023-07-26T04:47:08.387Z,97580.34
2023-07-26T04:49:35.385Z,97446.00
2023-07-26T04:52:02.293Z,97560.28
2023-07-26T04:54:29.285Z,97577.91
2023-07-26T04:56:56.622Z,97593.72
2023-07-26T04:59:23.566Z,97593.31
2023-07-26T05:01:50.623Z,97576.28
2023-07-26T05:04:18.315Z,97608.53
2023-07-26T05:06:45.418Z,97602.66
2023-07-26T05:09:12.323Z,97602.44
2023-07-26T05:11:39.232Z,97535.72
2023-07-26T05:14:06.341Z,97572.81
2023-07-26T05:16:33.317Z,97578.31
2023-07-26T05:19:01.065Z,97627.16
2023-07-26T05:21:28.176Z,97616.03
2023-07-26T05:23:55.145Z,97633.84
2023-07-26T05:26:22.216Z,97622.13
2023-07-26T05:28:49.252Z,97592.09
2023-07-26T05:31:16.287Z,97626.97
2023-07-26T05:33:43.265Z,97652.50
2023-07-26T05:36:10.268Z,97644.00
2023-07-26T05:38:37.211Z,97638.72
2023-07-26T05:41:05.717Z,97628.78
2023-07-26T05:43:33.064Z,97593.09
2023-07-26T05:46:02.436Z,97661.44
2023-07-26T05:48:29.293Z,97661.84
2023-07-26T05:50:56.754Z,97579.75
2023-07-26T05:53:23.779Z,97660.22
2023-07-26T05:55:50.959Z,97586.03
2023-07-26T05:58:18.973Z,97644.63
2023-07-26T06:00:46.152Z,97675.03
2023-07-26T06:03:13.220Z,97685.38
2023-07-26T06:05:41.536Z,97622.13
2023-07-26T06:08:09.003Z,97657.00
2023-07-26T06:10:36.042Z,97655.56
2023-07-26T06:13:03.676Z,97691.63
2023-07-26T06:15:31.469Z,97671.13
2023-07-26T06:17:58.564Z,97694.63
2023-07-26T06:20:25.712Z,97632.63
2023-07-26T06:22:53.348Z,97683.47
2023-07-26T06:25:24.620Z,97692.19
2023-07-26T06:27:59.768Z,97676.78
2023-07-26T06:30:28.356Z,97692.16
2023-07-26T06:32:55.537Z,97691.72
2023-07-26T06:35:22.824Z,97666.19
2023-07-26T06:37:51.417Z,97701.28
2023-07-26T06:40:18.854Z,97711.66
2023-07-26T06:42:46.032Z,97709.03
2023-07-26T06:45:17.809Z,97714.53
2023-07-26T06:47:46.549Z,97663.25
2023-07-26T06:50:14.362Z,97716.75
2023-07-26T06:52:42.016Z,97714.50
2023-07-26T06:55:09.173Z,97689.38
2023-07-26T06:57:36.103Z,97694.81
2023-07-26T07:00:03.311Z,97700.25
2023-07-26T07:02:30.333Z,97707.53
2023-07-26T07:04:58.227Z,97707.09
2023-07-26T07:07:25.148Z,97710.75
2023-07-26T07:09:52.133Z,97715.00
2023-07-26T07:12:19.080Z,97569.94
2023-07-26T07:14:45.980Z,97734.00
2023-07-26T07:17:12.997Z,97609.59
2023-07-26T07:19:39.942Z,97737.00
2023-07-26T07:22:06.794Z,97744.69
2023-07-26T07:24:37.842Z,97757.88
2023-07-26T07:27:05.103Z,97767.84
2023-07-26T07:29:34.228Z,97772.69
2023-07-26T07:32:16.204Z,97775.69
2023-07-26T07:34:48.625Z,97745.09
2023-07-26T07:37:15.627Z,97734.09
2023-07-26T07:39:42.670Z,97785.88
2023-07-26T07:42:09.512Z,97789.72
2023-07-26T07:44:36.450Z,97756.69
2023-07-26T07:47:05.698Z,97790.84
2023-07-26T07:49:33.699Z,97792.16
2023-07-26T07:52:00.985Z,97803.06
2023-07-26T07:54:27.856Z,97746.94
2023-07-26T07:56:54.719Z,97760.63
2023-07-26T07:59:22.154Z,97806.94
2023-07-26T08:01:49.380Z,97806.84
2023-07-26T08:04:31.707Z,97798.38
2023-07-26T08:06:59.630Z,97765.78
2023-07-26T08:09:27.125Z,97795.59
2023-07-26T08:11:54.257Z,97792.72
2023-07-26T08:14:21.134Z,97787.84
2023-07-26T08:16:48.305Z,97771.28
2023-07-26T08:19:15.336Z,97802.38
2023-07-26T08:21:42.420Z,97795.09
2023-07-26T08:24:09.243Z,97772.88
2023-07-26T08:26:36.801Z,97765.16
2023-07-26T08:29:03.707Z,97824.84
2023-07-26T08:31:30.782Z,97818.97
2023-07-26T08:33:57.970Z,97816.75
2023-07-26T08:36:25.298Z,97829.75
2023-07-26T08:38:52.266Z,97839.97
2023-07-26T08:41:19.298Z,97822.31
2023-07-26T08:43:49.325Z,97832.19
2023-07-26T08:46:17.064Z,97816.78
2023-07-26T08:48:44.314Z,97864.28
2023-07-26T08:51:11.671Z,97843.22
2023-07-26T08:53:41.291Z,97811.00
2023-07-26T08:56:09.518Z,97878.06
2023-07-26T08:58:36.626Z,97874.94
2023-07-26T09:01:03.943Z,97819.00
2023-07-26T09:03:30.973Z,97865.38
2023-07-26T09:06:06.843Z,97874.47
2023-07-26T09:08:34.343Z,97879.94
2023-07-26T09:11:04.409Z,97850.19
2023-07-26T09:13:32.059Z,97873.22
2023-07-26T09:16:01.775Z,97875.72
2023-07-26T09:18:29.675Z,97824.94
2023-07-26T09:21:06.064Z,97895.47
2023-07-26T09:23:51.407Z,97901.72
2023-07-26T09:26:36.193Z,97948.00
2023-07-26T09:29:09.520Z,97904.50
2023-07-26T09:31:38.266Z,97885.16
2023-07-26T09:34:09.462Z,97911.06
2023-07-26T09:36:49.660Z,97915.19
2023-07-26T09:39:19.777Z,97878.16
2023-07-26T09:41:47.610Z,97910.84
2023-07-26T09:44:20.136Z,97811.06
2023-07-26T09:46:51.324Z,97925.31
2023-07-26T09:54:33.470Z,97871.88
2023-07-26T09:57:02.543Z,97944.38
2023-07-26T09:59:31.543Z,97934.06
2023-07-26T10:02:03.651Z,97929.66
2023-07-26T10:04:50.510Z,97940.53
2023-07-26T10:07:18.227Z,97942.13
2023-07-26T10:09:48.680Z,97935.44
2023-07-26T10:12:16.627Z,97938.25
2023-07-26T10:14:44.056Z,97902.59
2023-07-26T10:17:14.434Z,97940.84
2023-07-26T10:19:42.736Z,97944.44
2023-07-26T10:22:11.020Z,97938.00
2023-07-26T10:24:39.884Z,97856.50
2023-07-26T10:27:07.592Z,97938.13
2023-07-26T10:29:34.663Z,97918.50
2023-07-26T10:32:07.651Z,97893.81
2023-07-26T10:34:35.519Z,97903.56
2023-07-26T10:37:19.866Z,97935.13
2023-07-26T10:39:47.591Z,97915.09
2023-07-26T10:42:24.381Z,97954.47
2023-07-26T10:44:53.255Z,97945.66
2023-07-26T10:47:21.751Z,97940.19
2023-07-26T10:49:50.108Z,97938.16
2023-07-26T10:52:17.763Z,97949.47
2023-07-26T10:54:52.321Z,97817.84
2023-07-26T10:57:28.393Z,97945.38
2023-07-26T11:00:00.858Z,97956.16
2023-07-26T11:02:44.804Z,97953.00
2023-07-26T11:05:19.986Z,97948.75
2023-07-26T11:08:04.081Z,97951.66
2023-07-26T11:10:31.111Z,97949.34
2023-07-26T11:13:08.921Z,97952.88
2023-07-26T11:16:12.921Z,97964.78
2023-07-26T11:18:27.856Z,97893.31
2023-07-26T11:20:56.273Z,97909.88
2023-07-26T11:23:27.163Z,97952.78
2023-07-26T11:25:56.829Z,97931.28
2023-07-26T11:28:26.278Z,97954.44
2023-07-26T11:30:55.234Z,97956.63
2023-07-26T11:33:42.645Z,97971.81
2023-07-26T11:36:09.788Z,97975.81
2023-07-26T11:38:42.970Z,97943.97
2023-07-26T11:41:10.104Z,97901.44
2023-07-26T11:43:39.679Z,97955.13
2023-07-26T11:46:06.746Z,97872.69
2023-07-26T11:48:35.154Z,97951.47
2023-07-26T11:51:04.867Z,97880.63
2023-07-26T11:53:43.994Z,97884.16
2023-07-26T11:56:12.360Z,97971.31
2023-07-26T11:58:39.582Z,97969.13
2023-07-26T12:01:07.385Z,97942.97
2023-07-26T12:03:34.640Z,97975.91
2023-07-26T12:06:06.556Z,97984.06
2023-07-26T12:08:36.779Z,97983.00
2023-07-26T12:11:07.898Z,97990.09
2023-07-26T12:13:36.483Z,97982.88
2023-07-26T12:16:05.030Z,97980.19
2023-07-26T12:18:32.583Z,98001.50
2023-07-26T12:21:06.870Z,97999.72
2023-07-26T12:23:55.455Z,97867.25
2023-07-26T12:26:26.900Z,98009.66
2023-07-26T12:28:55.613Z,97995.47
2023-07-26T12:31:28.923Z,98009.53
2023-07-26T12:34:01.446Z,97980.41
2023-07-26T12:36:31.615Z,97985.47
2023-07-26T12:38:59.505Z,98005.38
2023-07-26T12:41:27.273Z,98000.06
2023-07-26T12:43:55.741Z,98006.13
2023-07-26T12:46:23.423Z,98001.19
2023-07-26T12:48:53.835Z,98001.75
2023-07-26T12:51:20.786Z,97986.25
2023-07-26T12:53:47.895Z,97944.13
2023-07-26T12:56:14.972Z,97997.88
2023-07-26T12:58:56.625Z,97955.47
2023-07-26T13:01:28.950Z,98005.31
2023-07-26T13:03:56.047Z,97924.19
2023-07-26T13:06:23.060Z,97996.88
2023-07-26T13:08:50.068Z,97957.13
2023-07-26T13:11:17.174Z,97944.88
2023-07-26T13:13:44.049Z,97988.69
2023-07-26T13:16:11.179Z,97989.59
2023-07-26T13:18:38.122Z,98014.09
2023-07-26T13:21:05.210Z,97955.94
2023-07-26T13:23:32.172Z,97984.88
2023-07-26T13:25:59.081Z,97998.81
2023-07-26T13:28:26.161Z,97947.50
2023-07-26T13:30:53.168Z,97998.50
2023-07-26T13:33:20.156Z,97989.72
2023-07-26T13:35:47.564Z,97966.19
2023-07-26T13:38:14.536Z,97999.44
2023-07-26T13:40:41.541Z,97992.06
2023-07-26T13:43:40.906Z,97988.72
2023-07-26T13:46:16.725Z,97979.72
2023-07-26T13:48:54.633Z,97914.22
2023-07-26T13:51:21.562Z,97952.72
2023-07-26T13:53:48.584Z,97976.19
2023-07-26T13:56:15.567Z,97972.47
2023-07-26T13:58:42.269Z,97978.97
2023-07-26T14:01:09.511Z,97971.84
2023-07-26T14:03:36.312Z,97982.00
2023-07-26T14:06:03.378Z,97962.53
2023-07-26T14:08:30.165Z,97987.84
2023-07-26T14:10:57.697Z,97883.03
2023-07-26T14:13:24.703Z,97899.34
2023-07-26T14:15:51.585Z,97931.03
2023-07-26T14:18:18.348Z,97921.84
2023-07-26T14:20:45.106Z,97976.28
2023-07-26T14:23:12.018Z,97994.78
2023-07-26T14:25:39.749Z,97918.59
2023-07-26T14:28:06.613Z,97810.38
2023-07-26T14:30:33.395Z,97963.97
2023-07-26T14:33:01.294Z,97967.22
2023-07-26T14:35:28.166Z,97979.50
2023-07-26T14:37:55.170Z,98032.53
2023-07-26T14:40:22.183Z,97992.38
2023-07-26T14:42:50.009Z,98007.59
2023-07-26T14:45:16.886Z,98018.59
2023-07-26T14:47:43.678Z,98024.59
2023-07-26T14:50:11.941Z,98031.09
2023-07-26T14:52:39.118Z,98025.81
2023-07-26T14:55:06.378Z,97961.69
2023-07-26T14:57:33.402Z,98038.06
2023-07-26T15:00:00.346Z,98010.63
2023-07-26T15:02:27.323Z,98047.81
2023-07-26T15:04:55.353Z,98031.31
2023-07-26T15:07:22.339Z,97992.03
2023-07-26T15:09:50.705Z,97990.78
2023-07-26T15:12:18.232Z,98044.78
2023-07-26T15:14:45.200Z,98022.03
2023-07-26T15:17:12.660Z,98030.91
2023-07-26T15:19:39.630Z,97948.41
2023-07-26T15:22:06.767Z,98011.44
2023-07-26T15:24:33.779Z,98022.56
2023-07-26T15:27:00.732Z,98038.25
2023-07-26T15:29:28.414Z,98022.53
2023-07-26T15:31:55.328Z,98034.00
2023-07-26T15:34:22.273Z,98021.00
2023-07-26T15:36:49.142Z,98036.69
2023-07-26T15:39:16.127Z,98034.75
2023-07-26T15:44:13.239Z,98033.34
2023-07-26T15:46:44.028Z,97993.50
2023-07-26T15:49:17.071Z,97998.09
2023-07-26T15:51:47.430Z,98044.34
2023-07-26T15:54:14.292Z,97950.91
2023-07-26T15:56:41.244Z,98031.47
2023-07-26T15:59:11.020Z,98059.16
2023-07-26T16:01:40.570Z,98044.06
2023-07-26T16:04:26.463Z,98040.00
2023-07-26T16:21:54.290Z,98048.34
2023-07-26T16:24:21.536Z,98047.00
2023-07-26T16:26:48.437Z,98050.41
2023-07-26T16:29:15.411Z,97992.47
2023-07-26T16:31:42.526Z,97965.72
2023-07-26T16:34:09.587Z,98053.81
2023-07-26T16:36:36.660Z,98057.09
2023-07-26T16:39:03.607Z,98047.38
2023-07-26T16:41:31.522Z,98059.16
2023-07-26T16:43:59.017Z,98064.91
2023-07-26T16:46:33.503Z,98029.03
2023-07-26T16:49:10.327Z,98053.22
2023-07-26T16:51:39.458Z,97985.91
2023-07-26T16:54:06.344Z,98038.00
2023-07-26T16:56:33.688Z,98040.81
2023-07-26T16:59:01.041Z,97995.38
2023-07-26T17:01:28.061Z,98065.72
2023-07-26T17:03:55.071Z,98013.97
2023-07-26T17:06:23.263Z,98037.22
2023-07-26T17:08:50.283Z,98056.38
2023-07-26T17:11:17.357Z,98053.56
2023-07-26T17:13:44.285Z,98031.88
2023-07-26T17:16:16.505Z,98060.00
2023-07-26T17:18:48.921Z,98056.97
2023-07-26T17:21:17.274Z,98058.03
2023-07-26T17:23:45.881Z,97913.13
2023-07-26T17:26:12.857Z,97917.59
2023-07-26T17:28:39.798Z,97987.03
2023-07-26T17:31:06.857Z,98054.84
2023-07-26T17:33:35.254Z,98050.59
2023-07-26T17:36:12.966Z,98053.66
2023-07-26T17:38:40.068Z,98050.03
2023-07-26T17:41:07.324Z,97994.59
2023-07-26T17:43:36.389Z,98060.66
2023-07-26T17:46:04.541Z,98047.41
2023-07-26T17:48:31.817Z,98017.38
2023-07-26T17:51:00.960Z,98043.81
2023-07-26T17:53:28.944Z,98043.06
2023-07-26T17:55:56.162Z,98016.63
2023-07-26T17:58:23.062Z,98073.34
2023-07-26T18:00:50.255Z,98054.06
2023-07-26T18:03:17.321Z,98047.56
2023-07-26T18:05:47.396Z,98051.63
2023-07-26T18:08:17.674Z,97875.72
2023-07-26T18:10:44.928Z,98011.63
2023-07-26T18:13:11.962Z,98047.78
2023-07-26T18:15:39.299Z,98060.00
2023-07-26T18:18:06.752Z,98004.09
2023-07-26T18:20:33.645Z,98041.28
2023-07-26T18:23:00.517Z,98020.56
2023-07-26T18:25:27.558Z,97968.75
2023-07-26T18:27:57.097Z,97976.66
2023-07-26T18:30:24.013Z,98000.84
2023-07-26T18:32:51.005Z,98081.75
2023-07-26T18:35:18.122Z,98043.09
2023-07-26T18:37:45.525Z,98073.59
2023-07-26T18:40:12.802Z,98099.63
2023-07-26T18:42:52.726Z,98093.91
2023-07-26T18:45:20.371Z,98106.88
2023-07-26T18:47:48.323Z,98103.19
2023-07-26T18:50:15.200Z,98067.75
2023-07-26T18:52:42.104Z,98122.47
2023-07-26T18:55:09.306Z,98118.13
2023-07-26T18:57:46.130Z,98156.94
2023-07-26T19:00:15.010Z,98147.56
2023-07-26T19:02:42.255Z,98114.59
2023-07-26T19:05:09.425Z,98128.56
2023-07-26T19:07:36.760Z,98080.66
2023-07-26T19:10:44.273Z,98137.09
2023-07-26T19:13:19.045Z,98134.03
2023-07-26T19:15:46.060Z,98091.88
2023-07-26T19:18:17.216Z,98132.53
2023-07-26T19:20:46.036Z,98061.69
2023-07-26T19:23:14.791Z,98152.31
2023-07-26T19:25:42.906Z,98149.28
2023-07-26T19:28:09.770Z,98145.41
2023-07-26T19:30:36.777Z,98148.84
2023-07-26T19:33:04.176Z,98149.84
2023-07-26T19:35:31.348Z,98107.22
2023-07-26T19:37:59.014Z,98147.53
2023-07-26T19:40:26.631Z,98118.88
2023-07-26T19:42:55.130Z,98141.53
2023-07-26T19:45:22.690Z,98133.84
2023-07-26T19:47:49.770Z,98147.44
2023-07-26T19:50:16.916Z,98110.19
2023-07-26T19:52:44.831Z,98143.56
2023-07-26T19:55:15.325Z,98137.47
2023-07-26T19:57:43.435Z,98100.75
2023-07-26T20:00:18.452Z,98045.94
2023-07-26T20:02:45.603Z,98019.66
2023-07-26T20:05:12.694Z,98154.41
2023-07-26T20:07:39.586Z,98144.56
2023-07-26T20:10:08.079Z,98106.03
2023-07-26T20:12:39.157Z,98152.19
2023-07-26T20:15:09.257Z,98110.63
2023-07-26T20:17:36.962Z,98142.84
2023-07-26T20:20:07.889Z,98122.22
2023-07-26T20:22:35.943Z,98130.66
2023-07-26T20:25:03.641Z,98114.50
2023-07-26T20:27:30.856Z,98138.00
2023-07-26T20:30:00.033Z,98125.59
2023-07-26T20:32:28.619Z,98099.00
2023-07-26T20:34:56.388Z,98102.84
2023-07-26T20:37:24.972Z,98109.69
2023-07-26T20:39:57.097Z,98141.03
2023-07-26T20:42:28.872Z,98145.06
2023-07-26T20:44:56.800Z,98133.28
2023-07-26T20:47:24.099Z,97967.16
2023-07-26T20:49:51.309Z,98131.00
2023-07-26T20:52:18.853Z,98116.75
2023-07-26T20:54:45.837Z,98118.06
2023-07-26T20:57:13.025Z,98131.47
2023-07-26T20:59:39.983Z,98134.53
2023-07-26T21:02:08.813Z,98052.00
2023-07-26T21:04:35.896Z,98131.16
2023-07-26T21:07:03.771Z,98120.75
2023-07-26T21:09:30.858Z,98126.72
2023-07-26T21:11:57.672Z,98057.50
2023-07-26T21:14:24.612Z,98086.09
2023-07-26T21:16:51.724Z,98142.75
2023-07-26T21:19:18.806Z,98139.28
2023-07-26T21:21:45.743Z,98138.94
2023-07-26T21:24:12.653Z,98069.03
2023-07-26T21:26:39.583Z,98047.59
2023-07-26T21:29:06.637Z,98120.34
2023-07-26T21:31:33.545Z,98141.56
2023-07-26T21:34:00.354Z,98103.16
2023-07-26T21:36:27.277Z,98107.66
2023-07-26T21:38:54.343Z,98135.66
2023-07-26T21:41:21.171Z,98105.41
2023-07-26T21:43:47.914Z,98136.03
2023-07-26T21:46:14.794Z,98121.91
2023-07-26T21:48:41.596Z,98104.03
2023-07-26T21:51:08.464Z,98122.78
2023-07-26T21:53:35.226Z,98003.75
2023-07-26T21:56:03.459Z,98116.38
2023-07-26T21:58:30.261Z,98112.66
2023-07-26T22:00:56.974Z,98136.63
2023-07-26T22:03:23.731Z,98144.00
2023-07-26T22:05:53.938Z,98124.72
2023-07-26T22:08:23.453Z,98140.38
2023-07-26T22:10:50.250Z,98149.81
2023-07-26T22:13:17.097Z,98110.94
2023-07-26T22:15:46.886Z,98138.53
2023-07-26T22:18:13.939Z,98135.28
2023-07-26T22:20:56.758Z,98098.22
2023-07-26T22:23:29.372Z,97995.44
2023-07-26T22:26:07.378Z,98095.59
2023-07-26T22:28:39.613Z,98137.34
2023-07-26T22:31:06.401Z,98081.91
2023-07-26T22:33:33.135Z,98086.25
2023-07-26T22:36:03.545Z,98136.97
2023-07-26T22:38:30.596Z,98126.66
2023-07-26T22:40:57.484Z,98133.44
2023-07-26T22:43:24.207Z,98157.38
2023-07-26T22:45:51.218Z,98112.09
2023-07-26T22:48:17.988Z,98164.63
2023-07-26T22:50:44.761Z,98102.56
2023-07-26T22:53:11.477Z,98153.38
2023-07-26T22:55:38.459Z,98142.84
2023-07-26T22:58:06.476Z,98138.06
2023-07-26T23:00:33.582Z,98056.53
2023-07-26T23:03:00.560Z,98126.72
2023-07-26T23:05:27.451Z,98132.28
2023-07-26T23:07:54.175Z,98103.69
2023-07-26T23:10:21.702Z,98039.84
2023-07-26T23:12:48.649Z,98123.22
2023-07-26T23:15:15.649Z,98115.13
2023-07-26T23:17:42.494Z,98100.59
2023-07-26T23:20:09.869Z,98103.94
2023-07-26T23:22:37.632Z,98122.00
2023-07-26T23:25:05.227Z,98113.47
2023-07-26T23:27:31.995Z,98124.53
2023-07-26T23:29:59.744Z,98079.66
2023-07-26T23:32:26.723Z,98122.53
2023-07-26T23:34:53.730Z,98091.88
2023-07-26T23:37:20.465Z,98131.06
2023-07-26T23:39:47.210Z,98127.41
2023-07-26T23:42:13.986Z,98012.13
2023-07-26T23:44:40.905Z,98125.81
2023-07-26T23:47:07.787Z,98121.13
2023-07-26T23:49:35.926Z,98062.50
2023-07-26T23:52:03.136Z,98065.41
2023-07-26T23:54:29.955Z,98104.31
2023-07-26T23:56:56.728Z,98061.50
2023-07-26T23:59:23.448Z,98088.88
